sensor_id;sensor_type;location;lat;lon;timestamp;temperature;humidity
8214;DHT22;4148;47.974;7.824;2022-09-09T00:00:11;16.40;99.90
8214;DHT22;4148;47.974;7.824;2022-09-09T00:02:42;16.50;60.60
8214;DHT22;4148;47.974;7.824;2022-09-09T00:05:19;16.50;51.00
8214;DHT22;4148;47.974;7.824;2022-09-09T00:07:55;16.40;99.90
8214;DHT22;4148;47.974;7.824;2022-09-09T00:10:29;16.40;1.00
8214;DHT22;4148;47.974;7.824;2022-09-09T00:13:02;16.40;1.00
8214;DHT22;4148;47.974;7.824;2022-09-09T00:15:37;16.50;34.50
8214;DHT22;4148;47.974;7.824;2022-09-09T00:18:13;16.40;99.90
8214;DHT22;4148;47.974;7.824;2022-09-09T00:20:47;16.40;99.90
8214;DHT22;4148;47.974;7.824;2022-09-09T00:23:22;16.40;1.00
8214;DHT22;4148;47.974;7.824;2022-09-09T00:26:00;16.30;1.00
8214;DHT22;4148;47.974;7.824;2022-09-09T00:28:32;16.20;34.80
8214;DHT22;4148;47.974;7.824;2022-09-09T00:31:12;16.30;99.90
8214;DHT22;4148;47.974;7.824;2022-09-09T00:33:41;16.20;1.00
8214;DHT22;4148;47.974;7.824;2022-09-09T00:36:13;16.30;1.00
8214;DHT22;4148;47.974;7.824;2022-09-09T00:38:45;16.30;99.90
8214;DHT22;4148;47.974;7.824;2022-09-09T00:41:22;16.30;1.00
8214;DHT22;4148;47.974;7.824;2022-09-09T00:43:56;16.30;1.00
8214;DHT22;4148;47.974;7.824;2022-09-09T00:49:46;16.40;99.90
8214;DHT22;4148;47.974;7.824;2022-09-09T00:52:25;16.60;1.00
8214;DHT22;4148;47.974;7.824;2022-09-09T00:55:03;16.60;1.00
8214;DHT22;4148;47.974;7.824;2022-09-09T00:57:35;16.70;1.00
8214;DHT22;4148;47.974;7.824;2022-09-09T01:00:20;16.80;1.00
8214;DHT22;4148;47.974;7.824;2022-09-09T01:02:56;16.90;99.90
8214;DHT22;4148;47.974;7.824;2022-09-09T01:05:35;17.00;29.10
8214;DHT22;4148;47.974;7.824;2022-09-09T01:08:11;17.10;1.00
8214;DHT22;4148;47.974;7.824;2022-09-09T01:10:48;17.30;1.00
8214;DHT22;4148;47.974;7.824;2022-09-09T01:13:23;17.20;1.00
8214;DHT22;4148;47.974;7.824;2022-09-09T01:15:53;17.10;22.60
8214;DHT22;4148;47.974;7.824;2022-09-09T01:18:29;17.10;1.00
8214;DHT22;4148;47.974;7.824;2022-09-09T01:21:06;17.00;99.90
8214;DHT22;4148;47.974;7.824;2022-09-09T01:23:51;17.00;1.00
8214;DHT22;4148;47.974;7.824;2022-09-09T01:26:30;17.00;1.00
8214;DHT22;4148;47.974;7.824;2022-09-09T01:28:59;17.00;1.00
8214;DHT22;4148;47.974;7.824;2022-09-09T01:31:29;17.00;99.90
8214;DHT22;4148;47.974;7.824;2022-09-09T01:33:58;17.10;99.90
8214;DHT22;4148;47.974;7.824;2022-09-09T01:36:31;17.00;99.90
8214;DHT22;4148;47.974;7.824;2022-09-09T01:39:00;17.00;34.60
8214;DHT22;4148;47.974;7.824;2022-09-09T01:41:30;17.00;17.10
8214;DHT22;4148;47.974;7.824;2022-09-09T01:43:58;17.00;99.90
8214;DHT22;4148;47.974;7.824;2022-09-09T01:46:26;17.00;99.90
8214;DHT22;4148;47.974;7.824;2022-09-09T01:48:57;17.00;99.90
8214;DHT22;4148;47.974;7.824;2022-09-09T01:51:27;17.00;1.90
8214;DHT22;4148;47.974;7.824;2022-09-09T01:53:54;16.90;1.00
8214;DHT22;4148;47.974;7.824;2022-09-09T01:56:34;16.80;99.90
8214;DHT22;4148;47.974;7.824;2022-09-09T01:59:16;16.70;99.90
8214;DHT22;4148;47.974;7.824;2022-09-09T02:01:56;16.70;99.90
8214;DHT22;4148;47.974;7.824;2022-09-09T02:04:36;16.60;99.90
8214;DHT22;4148;47.974;7.824;2022-09-09T02:07:14;16.50;99.90
8214;DHT22;4148;47.974;7.824;2022-09-09T02:09:49;16.60;1.00
8214;DHT22;4148;47.974;7.824;2022-09-09T02:12:23;16.50;1.00
8214;DHT22;4148;47.974;7.824;2022-09-09T02:14:55;16.40;1.00
8214;DHT22;4148;47.974;7.824;2022-09-09T02:17:28;16.40;1.00
8214;DHT22;4148;47.974;7.824;2022-09-09T02:20:00;16.60;1.00
8214;DHT22;4148;47.974;7.824;2022-09-09T02:22:32;16.40;1.00
8214;DHT22;4148;47.974;7.824;2022-09-09T02:25:02;16.40;1.00
8214;DHT22;4148;47.974;7.824;2022-09-09T02:27:33;16.40;1.00
8214;DHT22;4148;47.974;7.824;2022-09-09T02:30:03;16.30;1.00
8214;DHT22;4148;47.974;7.824;2022-09-09T02:32:34;16.30;1.00
8214;DHT22;4148;47.974;7.824;2022-09-09T02:35:07;16.30;1.00
8214;DHT22;4148;47.974;7.824;2022-09-09T02:37:39;16.20;1.00
8214;DHT22;4148;47.974;7.824;2022-09-09T02:40:10;16.10;1.00
8214;DHT22;4148;47.974;7.824;2022-09-09T02:42:41;16.10;1.00
8214;DHT22;4148;47.974;7.824;2022-09-09T02:45:11;16.10;1.00
8214;DHT22;4148;47.974;7.824;2022-09-09T02:47:44;16.00;1.00
8214;DHT22;4148;47.974;7.824;2022-09-09T02:50:18;15.90;1.00
8214;DHT22;4148;47.974;7.824;2022-09-09T02:53:00;15.90;1.00
8214;DHT22;4148;47.974;7.824;2022-09-09T02:55:37;16.00;1.00
8214;DHT22;4148;47.974;7.824;2022-09-09T02:58:10;15.90;1.00
8214;DHT22;4148;47.974;7.824;2022-09-09T03:00:40;16.10;1.00
8214;DHT22;4148;47.974;7.824;2022-09-09T03:03:08;16.10;1.00
8214;DHT22;4148;47.974;7.824;2022-09-09T03:05:36;16.10;1.00
8214;DHT22;4148;47.974;7.824;2022-09-09T03:08:05;16.20;1.00
8214;DHT22;4148;47.974;7.824;2022-09-09T03:10:33;16.30;1.00
8214;DHT22;4148;47.974;7.824;2022-09-09T03:13:02;16.30;1.00
8214;DHT22;4148;47.974;7.824;2022-09-09T03:15:32;16.30;1.00
8214;DHT22;4148;47.974;7.824;2022-09-09T03:18:01;16.30;1.00
8214;DHT22;4148;47.974;7.824;2022-09-09T03:20:29;16.50;99.90
8214;DHT22;4148;47.974;7.824;2022-09-09T03:22:59;16.70;1.00
8214;DHT22;4148;47.974;7.824;2022-09-09T03:25:28;16.80;99.90
8214;DHT22;4148;47.974;7.824;2022-09-09T03:27:56;17.00;99.90
8214;DHT22;4148;47.974;7.824;2022-09-09T03:30:26;17.10;99.90
8214;DHT22;4148;47.974;7.824;2022-09-09T03:32:55;17.20;1.00
8214;DHT22;4148;47.974;7.824;2022-09-09T03:35:23;17.20;99.90
8214;DHT22;4148;47.974;7.824;2022-09-09T03:37:52;17.30;1.00
8214;DHT22;4148;47.974;7.824;2022-09-09T03:40:22;17.40;99.90
8214;DHT22;4148;47.974;7.824;2022-09-09T03:42:50;17.30;99.90
8214;DHT22;4148;47.974;7.824;2022-09-09T03:45:18;17.40;99.90
8214;DHT22;4148;47.974;7.824;2022-09-09T03:47:46;17.40;99.90
8214;DHT22;4148;47.974;7.824;2022-09-09T03:50:15;17.40;99.90
8214;DHT22;4148;47.974;7.824;2022-09-09T03:52:43;17.50;1.00
8214;DHT22;4148;47.974;7.824;2022-09-09T03:55:10;17.60;99.90
8214;DHT22;4148;47.974;7.824;2022-09-09T03:57:38;17.60;99.90
8214;DHT22;4148;47.974;7.824;2022-09-09T04:00:07;17.60;29.10
8214;DHT22;4148;47.974;7.824;2022-09-09T04:02:35;17.70;1.00
8214;DHT22;4148;47.974;7.824;2022-09-09T04:05:03;17.60;18.00
8214;DHT22;4148;47.974;7.824;2022-09-09T04:07:34;17.60;1.00
8214;DHT22;4148;47.974;7.824;2022-09-09T04:10:02;17.60;1.00
8214;DHT22;4148;47.974;7.824;2022-09-09T04:12:30;17.70;1.00
8214;DHT22;4148;47.974;7.824;2022-09-09T04:14:58;17.70;1.00
8214;DHT22;4148;47.974;7.824;2022-09-09T04:17:27;17.80;1.00
8214;DHT22;4148;47.974;7.824;2022-09-09T04:19:55;17.80;1.00
8214;DHT22;4148;47.974;7.824;2022-09-09T04:22:23;17.70;1.00
8214;DHT22;4148;47.974;7.824;2022-09-09T04:24:52;17.70;1.00
8214;DHT22;4148;47.974;7.824;2022-09-09T04:27:20;17.70;1.00
8214;DHT22;4148;47.974;7.824;2022-09-09T04:29:48;17.60;1.00
8214;DHT22;4148;47.974;7.824;2022-09-09T04:32:16;17.60;1.00
8214;DHT22;4148;47.974;7.824;2022-09-09T04:34:44;17.60;1.00
8214;DHT22;4148;47.974;7.824;2022-09-09T04:37:12;17.70;1.00
8214;DHT22;4148;47.974;7.824;2022-09-09T04:39:40;17.60;26.20
8214;DHT22;4148;47.974;7.824;2022-09-09T04:42:09;17.60;72.70
8214;DHT22;4148;47.974;7.824;2022-09-09T04:44:40;17.60;99.90
8214;DHT22;4148;47.974;7.824;2022-09-09T04:47:08;17.50;99.90
8214;DHT22;4148;47.974;7.824;2022-09-09T04:49:36;17.60;99.90
8214;DHT22;4148;47.974;7.824;2022-09-09T04:52:04;17.60;99.90
8214;DHT22;4148;47.974;7.824;2022-09-09T04:54:32;17.50;1.00
8214;DHT22;4148;47.974;7.824;2022-09-09T04:57:00;17.50;1.00
8214;DHT22;4148;47.974;7.824;2022-09-09T04:59:29;17.60;99.90
8214;DHT22;4148;47.974;7.824;2022-09-09T05:01:57;17.60;99.90
8214;DHT22;4148;47.974;7.824;2022-09-09T05:04:27;17.60;99.90
8214;DHT22;4148;47.974;7.824;2022-09-09T05:06:56;17.60;99.90
8214;DHT22;4148;47.974;7.824;2022-09-09T05:09:24;17.60;99.90
8214;DHT22;4148;47.974;7.824;2022-09-09T05:11:51;17.60;1.00
8214;DHT22;4148;47.974;7.824;2022-09-09T05:14:19;17.60;99.90
8214;DHT22;4148;47.974;7.824;2022-09-09T05:16:48;17.70;1.00
8214;DHT22;4148;47.974;7.824;2022-09-09T05:19:16;17.70;99.90
8214;DHT22;4148;47.974;7.824;2022-09-09T05:21:45;17.70;99.90
8214;DHT22;4148;47.974;7.824;2022-09-09T05:24:13;17.70;99.90
8214;DHT22;4148;47.974;7.824;2022-09-09T05:26:41;17.70;94.60
8214;DHT22;4148;47.974;7.824;2022-09-09T05:29:09;17.80;99.90
8214;DHT22;4148;47.974;7.824;2022-09-09T05:31:37;17.70;99.90
8214;DHT22;4148;47.974;7.824;2022-09-09T05:34:07;17.80;1.00
8214;DHT22;4148;47.974;7.824;2022-09-09T05:36:34;17.70;99.90
8214;DHT22;4148;47.974;7.824;2022-09-09T05:39:02;17.70;99.90
8214;DHT22;4148;47.974;7.824;2022-09-09T05:41:30;17.80;1.00
8214;DHT22;4148;47.974;7.824;2022-09-09T05:43:58;17.80;1.00
8214;DHT22;4148;47.974;7.824;2022-09-09T05:46:27;17.80;1.00
8214;DHT22;4148;47.974;7.824;2022-09-09T05:48:55;17.70;98.50
8214;DHT22;4148;47.974;7.824;2022-09-09T05:51:27;17.80;1.00
8214;DHT22;4148;47.974;7.824;2022-09-09T05:53:56;17.90;1.00
8214;DHT22;4148;47.974;7.824;2022-09-09T05:56:27;17.90;1.00
8214;DHT22;4148;47.974;7.824;2022-09-09T05:58:55;17.90;1.00
8214;DHT22;4148;47.974;7.824;2022-09-09T06:01:25;18.00;1.00
8214;DHT22;4148;47.974;7.824;2022-09-09T06:03:53;17.90;1.00
8214;DHT22;4148;47.974;7.824;2022-09-09T06:06:23;17.90;1.00
8214;DHT22;4148;47.974;7.824;2022-09-09T06:08:55;18.00;1.00
8214;DHT22;4148;47.974;7.824;2022-09-09T06:11:26;18.00;1.00
8214;DHT22;4148;47.974;7.824;2022-09-09T06:13:53;18.00;25.40
8214;DHT22;4148;47.974;7.824;2022-09-09T06:16:23;18.10;1.00
8214;DHT22;4148;47.974;7.824;2022-09-09T06:18:51;18.20;1.00
8214;DHT22;4148;47.974;7.824;2022-09-09T06:21:22;18.20;1.00
8214;DHT22;4148;47.974;7.824;2022-09-09T06:23:50;18.30;99.90
8214;DHT22;4148;47.974;7.824;2022-09-09T06:26:28;18.40;99.90
8214;DHT22;4148;47.974;7.824;2022-09-09T06:28:57;18.40;99.90
8214;DHT22;4148;47.974;7.824;2022-09-09T06:31:27;18.40;99.90
8214;DHT22;4148;47.974;7.824;2022-09-09T06:33:58;18.40;99.90
8214;DHT22;4148;47.974;7.824;2022-09-09T06:36:27;18.40;99.90
8214;DHT22;4148;47.974;7.824;2022-09-09T06:38:56;18.40;99.90
8214;DHT22;4148;47.974;7.824;2022-09-09T06:41:26;18.40;99.90
8214;DHT22;4148;47.974;7.824;2022-09-09T06:43:55;18.40;99.90
8214;DHT22;4148;47.974;7.824;2022-09-09T06:46:24;18.40;99.90
8214;DHT22;4148;47.974;7.824;2022-09-09T06:48:54;18.40;99.90
8214;DHT22;4148;47.974;7.824;2022-09-09T06:51:26;18.50;99.90
8214;DHT22;4148;47.974;7.824;2022-09-09T06:53:56;18.50;99.90
8214;DHT22;4148;47.974;7.824;2022-09-09T06:56:25;18.40;99.90
8214;DHT22;4148;47.974;7.824;2022-09-09T06:58:57;18.50;99.90
8214;DHT22;4148;47.974;7.824;2022-09-09T07:01:27;18.60;99.90
8214;DHT22;4148;47.974;7.824;2022-09-09T07:03:56;18.70;99.90
8214;DHT22;4148;47.974;7.824;2022-09-09T07:06:26;18.80;1.00
8214;DHT22;4148;47.974;7.824;2022-09-09T07:08:56;19.00;1.00
8214;DHT22;4148;47.974;7.824;2022-09-09T07:11:27;19.00;99.90
8214;DHT22;4148;47.974;7.824;2022-09-09T07:13:59;19.00;99.90
8214;DHT22;4148;47.974;7.824;2022-09-09T07:16:27;19.20;1.00
8214;DHT22;4148;47.974;7.824;2022-09-09T07:18:56;19.30;1.00
8214;DHT22;4148;47.974;7.824;2022-09-09T07:21:25;19.30;1.00
8214;DHT22;4148;47.974;7.824;2022-09-09T07:23:54;19.30;99.90
8214;DHT22;4148;47.974;7.824;2022-09-09T07:26:24;19.40;1.00
8214;DHT22;4148;47.974;7.824;2022-09-09T07:28:52;19.40;99.90
8214;DHT22;4148;47.974;7.824;2022-09-09T07:31:23;19.30;99.90
8214;DHT22;4148;47.974;7.824;2022-09-09T07:33:51;19.30;99.90
8214;DHT22;4148;47.974;7.824;2022-09-09T07:36:21;19.40;99.90
8214;DHT22;4148;47.974;7.824;2022-09-09T07:38:50;19.50;99.90
8214;DHT22;4148;47.974;7.824;2022-09-09T07:41:21;19.80;99.90
8214;DHT22;4148;47.974;7.824;2022-09-09T07:43:50;19.80;99.90
8214;DHT22;4148;47.974;7.824;2022-09-09T07:46:21;19.60;99.90
8214;DHT22;4148;47.974;7.824;2022-09-09T07:48:51;19.60;99.90
8214;DHT22;4148;47.974;7.824;2022-09-09T07:51:21;19.60;99.90
8214;DHT22;4148;47.974;7.824;2022-09-09T07:53:52;19.60;99.90
8214;DHT22;4148;47.974;7.824;2022-09-09T07:56:20;19.50;99.90
8214;DHT22;4148;47.974;7.824;2022-09-09T07:58:50;19.50;99.90
8214;DHT22;4148;47.974;7.824;2022-09-09T08:01:21;19.40;99.90
8214;DHT22;4148;47.974;7.824;2022-09-09T08:03:53;19.40;99.90
8214;DHT22;4148;47.974;7.824;2022-09-09T08:06:22;19.50;99.90
8214;DHT22;4148;47.974;7.824;2022-09-09T08:08:51;20.20;99.90
8214;DHT22;4148;47.974;7.824;2022-09-09T08:11:19;20.80;90.50
8214;DHT22;4148;47.974;7.824;2022-09-09T08:13:47;20.80;6.90
8214;DHT22;4148;47.974;7.824;2022-09-09T08:16:23;20.70;1.00
8214;DHT22;4148;47.974;7.824;2022-09-09T08:18:52;20.60;1.00
8214;DHT22;4148;47.974;7.824;2022-09-09T08:21:21;21.20;47.80
8214;DHT22;4148;47.974;7.824;2022-09-09T08:23:51;22.10;1.00
8214;DHT22;4148;47.974;7.824;2022-09-09T08:26:25;22.60;1.00
8214;DHT22;4148;47.974;7.824;2022-09-09T08:28:55;23.30;1.00
8214;DHT22;4148;47.974;7.824;2022-09-09T08:31:26;23.70;1.00
8214;DHT22;4148;47.974;7.824;2022-09-09T08:33:56;24.10;1.00
8214;DHT22;4148;47.974;7.824;2022-09-09T08:36:28;24.60;1.00
8214;DHT22;4148;47.974;7.824;2022-09-09T08:38:57;24.60;99.90
8214;DHT22;4148;47.974;7.824;2022-09-09T08:41:41;24.90;99.90
8214;DHT22;4148;47.974;7.824;2022-09-09T08:44:19;24.70;99.90
8214;DHT22;4148;47.974;7.824;2022-09-09T08:46:58;25.00;99.90
8214;DHT22;4148;47.974;7.824;2022-09-09T08:49:44;25.00;99.90
8214;DHT22;4148;47.974;7.824;2022-09-09T08:52:21;24.70;99.90
8214;DHT22;4148;47.974;7.824;2022-09-09T08:54:51;24.30;99.90
8214;DHT22;4148;47.974;7.824;2022-09-09T08:57:23;23.90;99.90
8214;DHT22;4148;47.974;7.824;2022-09-09T08:59:54;23.80;99.90
8214;DHT22;4148;47.974;7.824;2022-09-09T09:02:30;23.60;99.90
8214;DHT22;4148;47.974;7.824;2022-09-09T09:05:09;23.80;99.90
8214;DHT22;4148;47.974;7.824;2022-09-09T09:07:54;23.90;99.90
8214;DHT22;4148;47.974;7.824;2022-09-09T09:10:36;23.60;99.90
8214;DHT22;4148;47.974;7.824;2022-09-09T09:13:14;23.90;99.90
8214;DHT22;4148;47.974;7.824;2022-09-09T09:15:46;24.40;99.90
8214;DHT22;4148;47.974;7.824;2022-09-09T09:18:17;24.50;99.90
8214;DHT22;4148;47.974;7.824;2022-09-09T09:20:52;24.60;99.90
8214;DHT22;4148;47.974;7.824;2022-09-09T09:23:24;24.70;99.90
8214;DHT22;4148;47.974;7.824;2022-09-09T09:25:55;24.60;99.90
8214;DHT22;4148;47.974;7.824;2022-09-09T09:28:28;24.30;99.90
8214;DHT22;4148;47.974;7.824;2022-09-09T09:30:59;23.80;99.90
8214;DHT22;4148;47.974;7.824;2022-09-09T09:33:33;23.60;99.90
8214;DHT22;4148;47.974;7.824;2022-09-09T09:36:02;23.70;99.90
8214;DHT22;4148;47.974;7.824;2022-09-09T09:38:32;24.00;99.90
8214;DHT22;4148;47.974;7.824;2022-09-09T09:41:30;24.30;99.90
8214;DHT22;4148;47.974;7.824;2022-09-09T09:43:58;24.40;99.90
8214;DHT22;4148;47.974;7.824;2022-09-09T09:46:27;24.50;99.90
8214;DHT22;4148;47.974;7.824;2022-09-09T09:49:00;25.00;99.90
8214;DHT22;4148;47.974;7.824;2022-09-09T09:51:30;25.30;99.90
8214;DHT22;4148;47.974;7.824;2022-09-09T09:54:09;25.00;99.90
8214;DHT22;4148;47.974;7.824;2022-09-09T09:56:42;25.60;99.90
8214;DHT22;4148;47.974;7.824;2022-09-09T09:59:23;25.90;99.90
8214;DHT22;4148;47.974;7.824;2022-09-09T10:02:18;26.20;99.90
8214;DHT22;4148;47.974;7.824;2022-09-09T10:04:47;26.60;99.90
8214;DHT22;4148;47.974;7.824;2022-09-09T10:07:19;27.00;99.90
8214;DHT22;4148;47.974;7.824;2022-09-09T10:09:52;26.90;99.90
8214;DHT22;4148;47.974;7.824;2022-09-09T10:12:32;27.00;99.90
8214;DHT22;4148;47.974;7.824;2022-09-09T10:15:07;27.30;99.90
8214;DHT22;4148;47.974;7.824;2022-09-09T10:17:45;27.40;99.90
8214;DHT22;4148;47.974;7.824;2022-09-09T10:20:26;27.30;99.90
8214;DHT22;4148;47.974;7.824;2022-09-09T10:23:07;27.30;99.90
8214;DHT22;4148;47.974;7.824;2022-09-09T10:25:49;27.30;99.90
8214;DHT22;4148;47.974;7.824;2022-09-09T10:28:37;27.80;99.90
8214;DHT22;4148;47.974;7.824;2022-09-09T10:31:17;27.40;99.90
8214;DHT22;4148;47.974;7.824;2022-09-09T10:33:51;26.70;99.90
8214;DHT22;4148;47.974;7.824;2022-09-09T10:36:25;25.80;99.90
8214;DHT22;4148;47.974;7.824;2022-09-09T10:38:59;24.80;99.90
8214;DHT22;4148;47.974;7.824;2022-09-09T10:41:41;23.10;99.90
8214;DHT22;4148;47.974;7.824;2022-09-09T10:44:21;22.20;99.90
8214;DHT22;4148;47.974;7.824;2022-09-09T10:47:05;21.80;99.90
8214;DHT22;4148;47.974;7.824;2022-09-09T10:50:05;21.90;99.90
8214;DHT22;4148;47.974;7.824;2022-09-09T10:52:40;21.40;99.90
8214;DHT22;4148;47.974;7.824;2022-09-09T10:55:15;21.30;99.90
8214;DHT22;4148;47.974;7.824;2022-09-09T10:57:46;21.20;99.90
8214;DHT22;4148;47.974;7.824;2022-09-09T11:00:17;21.10;99.90
8214;DHT22;4148;47.974;7.824;2022-09-09T11:02:48;21.40;99.90
8214;DHT22;4148;47.974;7.824;2022-09-09T11:05:20;21.40;1.00
8214;DHT22;4148;47.974;7.824;2022-09-09T11:07:53;21.90;99.90
8214;DHT22;4148;47.974;7.824;2022-09-09T11:10:26;21.80;99.90
8214;DHT22;4148;47.974;7.824;2022-09-09T11:13:01;21.90;99.90
8214;DHT22;4148;47.974;7.824;2022-09-09T11:15:36;21.90;99.90
8214;DHT22;4148;47.974;7.824;2022-09-09T11:18:07;21.90;99.90
8214;DHT22;4148;47.974;7.824;2022-09-09T11:20:38;22.10;99.90
8214;DHT22;4148;47.974;7.824;2022-09-09T11:23:13;22.10;99.90
8214;DHT22;4148;47.974;7.824;2022-09-09T11:25:43;22.20;99.90
8214;DHT22;4148;47.974;7.824;2022-09-09T11:28:32;22.10;99.90
8214;DHT22;4148;47.974;7.824;2022-09-09T11:31:23;22.00;99.90
8214;DHT22;4148;47.974;7.824;2022-09-09T11:34:10;22.20;99.90
8214;DHT22;4148;47.974;7.824;2022-09-09T11:36:54;22.70;99.90
8214;DHT22;4148;47.974;7.824;2022-09-09T11:39:48;23.40;99.90
8214;DHT22;4148;47.974;7.824;2022-09-09T11:42:21;23.90;99.90
8214;DHT22;4148;47.974;7.824;2022-09-09T11:44:50;23.80;99.90
8214;DHT22;4148;47.974;7.824;2022-09-09T11:47:22;23.70;99.90
8214;DHT22;4148;47.974;7.824;2022-09-09T11:49:52;23.80;99.90
8214;DHT22;4148;47.974;7.824;2022-09-09T11:52:22;24.00;99.90
8214;DHT22;4148;47.974;7.824;2022-09-09T11:54:55;24.20;99.90
8214;DHT22;4148;47.974;7.824;2022-09-09T11:57:26;24.00;99.90
8214;DHT22;4148;47.974;7.824;2022-09-09T11:59:55;24.00;99.90
8214;DHT22;4148;47.974;7.824;2022-09-09T12:02:24;23.90;99.90
8214;DHT22;4148;47.974;7.824;2022-09-09T12:04:59;23.70;99.90
8214;DHT22;4148;47.974;7.824;2022-09-09T12:07:33;23.60;99.90
8214;DHT22;4148;47.974;7.824;2022-09-09T12:10:17;23.20;99.90
8214;DHT22;4148;47.974;7.824;2022-09-09T12:12:46;22.90;99.90
8214;DHT22;4148;47.974;7.824;2022-09-09T12:15:26;22.70;99.90
8214;DHT22;4148;47.974;7.824;2022-09-09T12:17:57;22.80;99.90
8214;DHT22;4148;47.974;7.824;2022-09-09T12:20:34;22.80;99.90
8214;DHT22;4148;47.974;7.824;2022-09-09T12:23:22;22.90;99.90
8214;DHT22;4148;47.974;7.824;2022-09-09T12:26:07;22.80;99.90
8214;DHT22;4148;47.974;7.824;2022-09-09T12:28:44;22.90;99.90
8214;DHT22;4148;47.974;7.824;2022-09-09T12:31:17;23.10;99.90
8214;DHT22;4148;47.974;7.824;2022-09-09T12:33:48;23.00;99.90
8214;DHT22;4148;47.974;7.824;2022-09-09T12:36:21;22.80;99.90
8214;DHT22;4148;47.974;7.824;2022-09-09T12:38:50;22.70;99.90
8214;DHT22;4148;47.974;7.824;2022-09-09T12:41:22;22.60;99.90
8214;DHT22;4148;47.974;7.824;2022-09-09T12:43:51;22.50;99.90
8214;DHT22;4148;47.974;7.824;2022-09-09T12:46:23;22.40;99.90
8214;DHT22;4148;47.974;7.824;2022-09-09T12:48:54;22.30;99.90
8214;DHT22;4148;47.974;7.824;2022-09-09T12:51:26;22.20;99.90
8214;DHT22;4148;47.974;7.824;2022-09-09T12:53:56;22.10;99.90
8214;DHT22;4148;47.974;7.824;2022-09-09T12:56:28;21.90;99.90
8214;DHT22;4148;47.974;7.824;2022-09-09T12:58:58;21.90;99.90
8214;DHT22;4148;47.974;7.824;2022-09-09T13:01:29;21.90;99.90
8214;DHT22;4148;47.974;7.824;2022-09-09T13:03:57;21.90;99.90
8214;DHT22;4148;47.974;7.824;2022-09-09T13:06:26;21.80;99.90
8214;DHT22;4148;47.974;7.824;2022-09-09T13:08:57;21.90;99.90
8214;DHT22;4148;47.974;7.824;2022-09-09T13:11:29;21.70;99.90
8214;DHT22;4148;47.974;7.824;2022-09-09T13:13:59;21.60;99.90
8214;DHT22;4148;47.974;7.824;2022-09-09T13:16:29;21.50;99.90
8214;DHT22;4148;47.974;7.824;2022-09-09T13:18:59;21.40;99.90
8214;DHT22;4148;47.974;7.824;2022-09-09T13:21:32;21.30;99.90
8214;DHT22;4148;47.974;7.824;2022-09-09T13:24:01;21.30;99.90
8214;DHT22;4148;47.974;7.824;2022-09-09T13:26:32;21.20;99.90
8214;DHT22;4148;47.974;7.824;2022-09-09T13:29:16;21.00;99.90
8214;DHT22;4148;47.974;7.824;2022-09-09T13:31:45;20.70;99.90
8214;DHT22;4148;47.974;7.824;2022-09-09T13:34:14;20.40;99.90
8214;DHT22;4148;47.974;7.824;2022-09-09T13:36:48;20.00;99.90
8214;DHT22;4148;47.974;7.824;2022-09-09T13:39:17;19.70;99.90
8214;DHT22;4148;47.974;7.824;2022-09-09T13:41:47;19.30;99.90
8214;DHT22;4148;47.974;7.824;2022-09-09T13:44:20;19.20;99.90
8214;DHT22;4148;47.974;7.824;2022-09-09T13:47:00;19.10;99.90
8214;DHT22;4148;47.974;7.824;2022-09-09T13:49:35;19.20;99.90
8214;DHT22;4148;47.974;7.824;2022-09-09T13:52:08;19.40;99.90
8214;DHT22;4148;47.974;7.824;2022-09-09T13:54:36;19.50;99.90
8214;DHT22;4148;47.974;7.824;2022-09-09T13:57:11;19.60;99.90
8214;DHT22;4148;47.974;7.824;2022-09-09T13:59:41;19.70;99.90
8214;DHT22;4148;47.974;7.824;2022-09-09T14:02:29;19.80;99.90
8214;DHT22;4148;47.974;7.824;2022-09-09T14:04:57;20.00;99.90
8214;DHT22;4148;47.974;7.824;2022-09-09T14:07:25;19.90;99.90
8214;DHT22;4148;47.974;7.824;2022-09-09T14:09:53;20.10;99.90
8214;DHT22;4148;47.974;7.824;2022-09-09T14:12:22;20.20;99.90
8214;DHT22;4148;47.974;7.824;2022-09-09T14:14:50;20.10;99.90
8214;DHT22;4148;47.974;7.824;2022-09-09T14:17:18;20.10;99.90
8214;DHT22;4148;47.974;7.824;2022-09-09T14:19:45;20.20;99.90
8214;DHT22;4148;47.974;7.824;2022-09-09T14:22:14;20.20;99.90
8214;DHT22;4148;47.974;7.824;2022-09-09T14:24:42;20.20;99.90
8214;DHT22;4148;47.974;7.824;2022-09-09T14:27:09;20.40;99.90
8214;DHT22;4148;47.974;7.824;2022-09-09T14:29:38;20.40;99.90
8214;DHT22;4148;47.974;7.824;2022-09-09T14:32:06;20.30;99.90
8214;DHT22;4148;47.974;7.824;2022-09-09T14:34:38;20.30;99.90
8214;DHT22;4148;47.974;7.824;2022-09-09T14:37:07;20.30;99.90
8214;DHT22;4148;47.974;7.824;2022-09-09T14:39:34;20.40;99.90
8214;DHT22;4148;47.974;7.824;2022-09-09T14:42:03;20.50;99.90
8214;DHT22;4148;47.974;7.824;2022-09-09T14:44:30;20.60;99.90
8214;DHT22;4148;47.974;7.824;2022-09-09T14:47:00;20.70;99.90
8214;DHT22;4148;47.974;7.824;2022-09-09T14:49:27;20.70;99.90
8214;DHT22;4148;47.974;7.824;2022-09-09T14:51:55;20.70;99.90
8214;DHT22;4148;47.974;7.824;2022-09-09T14:54:23;20.60;99.90
8214;DHT22;4148;47.974;7.824;2022-09-09T14:56:51;20.60;99.90
8214;DHT22;4148;47.974;7.824;2022-09-09T14:59:18;20.50;99.90
8214;DHT22;4148;47.974;7.824;2022-09-09T15:01:46;20.50;99.90
8214;DHT22;4148;47.974;7.824;2022-09-09T15:04:16;20.50;99.90
8214;DHT22;4148;47.974;7.824;2022-09-09T15:06:44;20.40;99.90
8214;DHT22;4148;47.974;7.824;2022-09-09T15:09:15;20.40;99.90
8214;DHT22;4148;47.974;7.824;2022-09-09T15:11:43;20.30;99.90
8214;DHT22;4148;47.974;7.824;2022-09-09T15:14:10;20.30;99.90
8214;DHT22;4148;47.974;7.824;2022-09-09T15:16:39;20.30;99.90
8214;DHT22;4148;47.974;7.824;2022-09-09T15:19:07;20.40;99.90
8214;DHT22;4148;47.974;7.824;2022-09-09T15:21:37;20.40;99.90
8214;DHT22;4148;47.974;7.824;2022-09-09T15:24:06;20.30;99.90
8214;DHT22;4148;47.974;7.824;2022-09-09T15:26:35;20.40;99.90
8214;DHT22;4148;47.974;7.824;2022-09-09T15:29:05;20.30;99.90
8214;DHT22;4148;47.974;7.824;2022-09-09T15:31:34;20.20;99.90
8214;DHT22;4148;47.974;7.824;2022-09-09T15:34:04;20.10;99.90
8214;DHT22;4148;47.974;7.824;2022-09-09T15:36:34;20.00;99.90
8214;DHT22;4148;47.974;7.824;2022-09-09T15:39:05;19.90;99.90
8214;DHT22;4148;47.974;7.824;2022-09-09T15:41:33;19.90;99.90
8214;DHT22;4148;47.974;7.824;2022-09-09T15:44:02;19.90;99.90
8214;DHT22;4148;47.974;7.824;2022-09-09T15:46:31;19.90;99.90
8214;DHT22;4148;47.974;7.824;2022-09-09T15:49:04;19.80;99.90
8214;DHT22;4148;47.974;7.824;2022-09-09T15:51:32;19.80;99.90
8214;DHT22;4148;47.974;7.824;2022-09-09T15:54:12;19.80;99.90
8214;DHT22;4148;47.974;7.824;2022-09-09T15:56:40;19.70;99.90
8214;DHT22;4148;47.974;7.824;2022-09-09T15:59:09;19.70;99.90
8214;DHT22;4148;47.974;7.824;2022-09-09T16:01:38;19.80;99.90
8214;DHT22;4148;47.974;7.824;2022-09-09T16:04:07;19.70;1.00
8214;DHT22;4148;47.974;7.824;2022-09-09T16:06:35;19.70;99.90
8214;DHT22;4148;47.974;7.824;2022-09-09T16:09:05;19.80;99.90
8214;DHT22;4148;47.974;7.824;2022-09-09T16:11:36;19.70;99.90
8214;DHT22;4148;47.974;7.824;2022-09-09T16:14:05;19.60;99.90
8214;DHT22;4148;47.974;7.824;2022-09-09T16:16:34;19.50;99.90
8214;DHT22;4148;47.974;7.824;2022-09-09T16:19:04;19.50;99.90
8214;DHT22;4148;47.974;7.824;2022-09-09T16:21:35;19.40;1.00
8214;DHT22;4148;47.974;7.824;2022-09-09T16:24:05;19.20;99.90
8214;DHT22;4148;47.974;7.824;2022-09-09T16:26:37;19.00;1.00
8214;DHT22;4148;47.974;7.824;2022-09-09T16:29:05;18.90;1.00
8214;DHT22;4148;47.974;7.824;2022-09-09T16:31:33;18.70;1.00
8214;DHT22;4148;47.974;7.824;2022-09-09T16:34:01;18.50;99.90
8214;DHT22;4148;47.974;7.824;2022-09-09T16:36:32;18.40;36.80
8214;DHT22;4148;47.974;7.824;2022-09-09T16:39:03;18.30;1.00